KDUC/DUC METAR and TAF weather

Enter ICAO airport designator
Station Type Date Time Source
KDUC METAR 2020/07/10 15:35 UTC NOAA

KDUC 101535Z AUTO 20012KT 10SM CLR 30/24 A3001 RMK AO2 LTG DSNT N T02990236


Station Type Date Time Source
KDUC Decoded METAR 2020/07/10 15:35 UTC NOAA

Duncan, Halliburton Field Airport, OK, United States (KDUC) 34-28-15N 097-57-36W
Jul 10, 2020 - 11:35 AM EDT / 2020.07.10 1535 UTC
Wind: from the SSW (200 degrees) at 14 MPH (12 KT):0
Visibility: 10 mile(s):0
Sky conditions: clear
Weather: Lightning observed
Temperature: 85.8 F (29.9 C)
Heat index: 94.1 F (34.5 C):1
Dew Point: 74.5 F (23.6 C)
Relative Humidity: 69%
Pressure (altimeter): 30.01 in. Hg (1016 hPa)
ob: KDUC 101535Z AUTO 20012KT 10SM CLR 30/24 A3001 RMK AO2 LTG DSNT N T02990236
cycle: 15

Station Type Date Time Source
KDUC TAF UTC NOAA

Error!

Example: see airport list